Impacts TAF Board INFO
FOR SITUATIONAL AWARENESS. NOT TO BE USED FOR FLIGHT PLANNING PURPOSES.
IDs:

KNEW - New Orleans/Lakefron, LA, US

Issued at 1740 UTC 23 May 2018
Updated at 2229 UTC 23 May 2018
Potential Impact None Slight Moderate High
Time<<24/11Z 24/12Z 24/13Z 24/14Z 24/15Z 24/16Z 24/17Z 24/18Z 24/19Z 24/20Z 24/21Z 24/22Z 24/23Z>>
Type PRVL PRVL PRVL PRVL PRVL PRVL PRVL
VIS >6 >6 >6 >6 >6 >6 >6
CIG -- -- -- -- -- -- --
Cover FEW FEW FEW FEW SCT SCT SCT
FltCat VFR VFR VFR VFR VFR VFR VFR
WX -- -- -- -- -- -- --
WDir VRB VRB VRB VRB 60 60 60
WSpd 4 4 4 4 6 6 6
WGst -- -- -- -- -- -- --

Raw TAF
KNEW 231740Z 2318/2418 01005KT P6SM VCTS FEW040CB
  FM232100 11007KT P6SM VCTS SCT040CB
  FM240800 VRB04KT P6SM FEW020
  FM241500 06006KT P6SM SCT250


METAR Board

FOR SITUATIONAL AWARENESS. NOT TO BE USED FOR FLIGHT PLANNING PURPOSES.